createdAt,value
2022-09-13T00:02:16.272Z,84.50
2022-09-13T00:05:23.248Z,84.63
2022-09-13T00:08:29.272Z,84.57
2022-09-13T00:11:36.279Z,84.85
2022-09-13T00:14:42.254Z,84.83
2022-09-13T00:17:51.712Z,84.92
2022-09-13T00:21:07.579Z,85.16
2022-09-13T00:24:14.295Z,85.48
2022-09-13T00:27:20.322Z,85.21
2022-09-13T00:30:27.247Z,85.47
2022-09-13T00:33:37.136Z,85.34
2022-09-13T00:36:43.953Z,85.39
2022-09-13T00:39:50.246Z,85.53
2022-09-13T00:42:56.925Z,85.45
2022-09-13T00:46:03.539Z,85.41
2022-09-13T00:49:19.939Z,85.66
2022-09-13T00:52:28.883Z,85.84
2022-09-13T00:55:41.453Z,85.88
2022-09-13T00:58:52.320Z,85.92
2022-09-13T01:02:00.876Z,85.82
2022-09-13T01:05:12.127Z,86.16
2022-09-13T01:08:23.217Z,86.23
2022-09-13T01:11:34.725Z,86.49
2022-09-13T01:14:42.021Z,86.34
2022-09-13T01:17:48.212Z,86.66
2022-09-13T01:21:29.152Z,86.39
2022-09-13T01:24:59.486Z,86.79
2022-09-13T01:28:29.075Z,86.70
2022-09-13T01:31:49.113Z,86.77
2022-09-13T01:35:07.106Z,86.90
2022-09-13T01:38:26.998Z,86.84
2022-09-13T01:42:07.241Z,86.89
2022-09-13T01:45:24.906Z,86.56
2022-09-13T01:48:40.253Z,86.63
2022-09-13T01:51:53.076Z,86.06
2022-09-13T01:55:08.907Z,85.93
2022-09-13T01:58:24.354Z,85.62
2022-09-13T02:01:36.824Z,86.00
2022-09-13T02:04:54.558Z,86.33
2022-09-13T02:08:06.577Z,86.15
2022-09-13T02:11:15.478Z,86.34
2022-09-13T02:14:25.115Z,85.76
2022-09-13T02:17:35.787Z,85.62
2022-09-13T02:20:47.396Z,85.27
2022-09-13T02:23:58.240Z,85.10
2022-09-13T02:27:08.854Z,84.80
2022-09-13T02:30:17.858Z,85.26
2022-09-13T02:33:29.637Z,85.02
2022-09-13T02:36:43.199Z,84.68
2022-09-13T02:39:55.684Z,85.12
2022-09-13T02:43:07.728Z,85.27
2022-09-13T02:46:30.126Z,85.23
2022-09-13T02:49:47.398Z,84.87
2022-09-13T02:53:06.534Z,84.61
2022-09-13T02:56:25.052Z,84.54
2022-09-13T02:59:31.069Z,84.73
2022-09-13T03:02:40.553Z,84.85
2022-09-13T03:05:46.533Z,84.80
2022-09-13T03:08:57.097Z,84.68
2022-09-13T03:12:19.004Z,84.34
2022-09-13T03:15:40.649Z,84.31
2022-09-13T03:18:57.311Z,84.61
2022-09-13T03:22:23.704Z,84.55
2022-09-13T03:25:45.895Z,84.67
2022-09-13T03:29:03.565Z,84.52
2022-09-13T03:32:22.318Z,84.19
2022-09-13T03:35:35.656Z,84.18
2022-09-13T03:38:47.017Z,84.52
2022-09-13T03:42:03.587Z,85.22
2022-09-13T03:45:12.957Z,85.38
2022-09-13T03:48:21.183Z,85.59
2022-09-13T03:51:28.179Z,86.04
2022-09-13T03:54:36.205Z,86.73
2022-09-13T03:57:45.300Z,86.75
2022-09-13T04:00:55.249Z,87.13
2022-09-13T04:04:01.134Z,87.54
2022-09-13T04:07:08.806Z,87.45
2022-09-13T04:10:14.672Z,88.05
2022-09-13T04:13:24.242Z,88.05
2022-09-13T04:16:30.181Z,88.27
2022-09-13T04:19:37.284Z,88.13
2022-09-13T04:22:45.717Z,88.12
2022-09-13T04:25:52.405Z,88.10
2022-09-13T04:29:01.241Z,88.07
2022-09-13T04:32:09.819Z,88.54
2022-09-13T04:35:17.772Z,88.67
2022-09-13T04:38:24.600Z,87.90
2022-09-13T04:41:32.288Z,87.32
2022-09-13T04:44:42.429Z,87.13
2022-09-13T04:47:48.227Z,87.15
2022-09-13T04:50:55.140Z,87.17
2022-09-13T04:54:01.313Z,87.21
2022-09-13T04:57:08.924Z,87.62
2022-09-13T05:00:18.663Z,87.81
2022-09-13T05:03:25.593Z,87.48
2022-09-13T05:06:31.464Z,87.43
2022-09-13T05:09:38.752Z,87.72
2022-09-13T05:12:46.310Z,87.77
2022-09-13T05:15:58.813Z,87.58
2022-09-13T05:19:07.321Z,87.40
2022-09-13T05:22:14.141Z,87.24
2022-09-13T05:25:24.155Z,87.39
2022-09-13T05:28:34.455Z,87.14
2022-09-13T05:31:45.349Z,86.88
2022-09-13T05:34:52.158Z,86.99
2022-09-13T05:37:58.094Z,87.16
2022-09-13T05:41:06.901Z,87.34
2022-09-13T05:44:13.759Z,87.26
2022-09-13T05:47:23.421Z,86.95
2022-09-13T05:50:56.723Z,86.88
2022-09-13T05:53:57.817Z,86.68
2022-09-13T05:57:04.064Z,85.74
2022-09-13T06:00:12.209Z,85.29
2022-09-13T06:03:23.929Z,85.35
2022-09-13T06:06:30.883Z,85.29
2022-09-13T06:09:36.631Z,84.65
2022-09-13T06:12:44.063Z,84.79
2022-09-13T06:15:49.911Z,84.33
2022-09-13T06:19:00.936Z,83.87
2022-09-13T06:22:08.262Z,83.75
2022-09-13T06:25:14.904Z,83.64
2022-09-13T06:28:21.366Z,83.91
2022-09-13T06:31:30.349Z,83.35
2022-09-13T06:34:38.957Z,83.34
2022-09-13T06:37:45.664Z,82.68
2022-09-13T06:40:51.911Z,82.88
2022-09-13T06:44:00.549Z,82.32
2022-09-13T06:47:08.823Z,82.26
2022-09-13T06:50:18.445Z,82.07
2022-09-13T06:53:24.501Z,81.70
2022-09-13T06:56:33.308Z,81.62
2022-09-13T06:59:39.111Z,81.47
2022-09-13T07:02:46.015Z,81.36
2022-09-13T07:05:54.719Z,81.06
2022-09-13T07:09:03.455Z,80.65
2022-09-13T07:12:10.336Z,80.32
2022-09-13T07:15:17.307Z,79.65
2022-09-13T07:18:23.620Z,79.32
2022-09-13T07:21:33.387Z,79.23
2022-09-13T07:24:39.194Z,78.88
2022-09-13T07:27:45.954Z,78.29
2022-09-13T07:30:51.948Z,77.86
2022-09-13T07:34:04.069Z,77.94
2022-09-13T07:37:12.895Z,77.94
2022-09-13T07:40:19.784Z,77.65
2022-09-13T07:43:25.757Z,77.23
2022-09-13T07:46:36.629Z,76.71
2022-09-13T07:49:42.473Z,76.26
2022-09-13T07:52:52.322Z,76.33
2022-09-13T07:56:03.518Z,76.58
2022-09-13T07:59:15.068Z,76.17
2022-09-13T08:02:21.477Z,75.85
2022-09-13T08:05:28.165Z,75.79
2022-09-13T08:08:37.643Z,75.62
2022-09-13T08:11:46.421Z,75.31
2022-09-13T08:14:52.216Z,74.70
2022-09-13T08:17:58.867Z,72.83
2022-09-13T08:21:06.566Z,73.97
2022-09-13T08:24:19.746Z,73.12
2022-09-13T08:27:25.470Z,72.67
2022-09-13T08:30:33.597Z,72.60
2022-09-13T08:33:44.201Z,71.26
2022-09-13T08:36:53.111Z,70.93
2022-09-13T08:40:03.867Z,71.52
2022-09-13T08:43:19.761Z,70.66
2022-09-13T08:46:29.299Z,69.77
2022-09-13T08:49:40.086Z,69.32
2022-09-13T08:53:11.981Z,69.57
2022-09-13T08:56:26.283Z,68.06
2022-09-13T08:59:47.875Z,68.01
2022-09-13T09:03:08.426Z,67.76
2022-09-13T09:06:17.980Z,66.94
2022-09-13T09:09:26.664Z,68.00
2022-09-13T09:12:41.488Z,67.02
2022-09-13T09:15:52.039Z,67.48
2022-09-13T09:19:01.264Z,66.75
2022-09-13T09:22:16.818Z,66.91
2022-09-13T09:25:25.273Z,66.00
2022-09-13T09:28:34.807Z,65.48
2022-09-13T09:31:47.716Z,65.75
2022-09-13T09:35:06.722Z,65.43
2022-09-13T09:38:31.597Z,64.63
2022-09-13T09:41:39.049Z,63.11
2022-09-13T09:44:52.175Z,63.14
2022-09-13T09:48:03.540Z,63.31
2022-09-13T09:51:12.002Z,63.05
2022-09-13T09:54:19.073Z,62.53
2022-09-13T09:57:25.190Z,63.38
2022-09-13T10:00:37.023Z,62.49
2022-09-13T10:03:43.528Z,62.73
2022-09-13T10:06:50.330Z,61.94
2022-09-13T10:10:06.510Z,60.81
2022-09-13T10:13:20.166Z,60.46
2022-09-13T10:16:31.481Z,60.00
2022-09-13T10:19:42.282Z,60.79
2022-09-13T10:22:48.375Z,60.82
2022-09-13T10:26:09.908Z,61.24
2022-09-13T10:29:19.535Z,61.18
2022-09-13T10:32:30.132Z,60.63
2022-09-13T10:35:37.152Z,60.90
2022-09-13T10:38:46.311Z,61.01
2022-09-13T10:41:56.440Z,60.04
2022-09-13T10:45:06.605Z,60.43
2022-09-13T10:48:19.008Z,60.87
2022-09-13T10:51:38.735Z,61.35
2022-09-13T10:54:45.640Z,61.28
2022-09-13T10:57:54.288Z,60.29
2022-09-13T11:01:36.959Z,60.29
2022-09-13T11:05:06.656Z,59.18
2022-09-13T11:08:34.174Z,59.22
2022-09-13T11:11:48.937Z,59.65
2022-09-13T11:15:06.621Z,59.38
2022-09-13T11:18:29.506Z,58.45
2022-09-13T11:21:51.430Z,59.14
2022-09-13T11:25:18.763Z,58.72
2022-09-13T11:28:34.913Z,55.14
2022-09-13T11:31:47.046Z,53.79
2022-09-13T11:35:06.535Z,55.34
2022-09-13T11:38:34.784Z,55.53
2022-09-13T11:41:49.809Z,55.15
2022-09-13T11:45:22.215Z,55.16
2022-09-13T11:48:42.583Z,55.36
2022-09-13T11:51:58.260Z,54.28
2022-09-13T11:55:17.648Z,53.82
2022-09-13T11:58:30.966Z,52.04
2022-09-13T12:01:42.317Z,49.61
2022-09-13T12:05:18.387Z,50.41
2022-09-13T12:08:26.002Z,51.64
2022-09-13T12:11:39.140Z,52.85
2022-09-13T12:14:50.429Z,52.65
2022-09-13T12:18:03.479Z,52.15
2022-09-13T12:21:13.358Z,52.71
2022-09-13T12:24:22.913Z,52.44
2022-09-13T12:27:40.522Z,52.97
2022-09-13T12:30:55.016Z,53.72
2022-09-13T12:34:04.306Z,53.77
2022-09-13T12:37:42.455Z,52.53
2022-09-13T12:41:15.693Z,53.40
2022-09-13T12:44:45.702Z,53.43
2022-09-13T12:48:18.600Z,53.30
2022-09-13T12:51:44.578Z,52.83
2022-09-13T12:55:47.086Z,52.89
2022-09-13T12:59:51.862Z,52.75
2022-09-13T13:03:16.247Z,52.79
2022-09-13T13:06:33.567Z,53.57
2022-09-13T13:09:43.935Z,53.70
2022-09-13T13:12:53.868Z,53.17
2022-09-13T13:16:27.697Z,53.97
2022-09-13T13:19:37.502Z,53.50
2022-09-13T13:22:54.068Z,53.30
2022-09-13T13:26:05.876Z,54.36
2022-09-13T13:29:23.533Z,54.65
2022-09-13T13:32:33.406Z,54.50
2022-09-13T13:35:39.503Z,55.02
2022-09-13T13:38:51.727Z,55.12
2022-09-13T13:41:59.272Z,54.96
2022-09-13T13:45:21.024Z,54.67
2022-09-13T13:52:41.542Z,54.95
2022-09-13T13:55:50.288Z,55.30
2022-09-13T13:59:05.266Z,54.99
2022-09-13T14:02:17.127Z,55.18
2022-09-13T14:05:33.091Z,55.62
2022-09-13T14:08:50.068Z,54.93
2022-09-13T14:12:13.768Z,54.95
2022-09-13T14:15:49.060Z,54.41
2022-09-13T14:19:10.431Z,54.60
2022-09-13T14:22:22.880Z,54.96
2022-09-13T14:25:30.344Z,54.26
2022-09-13T14:28:36.347Z,54.63
2022-09-13T14:31:51.400Z,54.62
2022-09-13T14:35:00.986Z,54.43
2022-09-13T14:38:23.575Z,54.43
2022-09-13T14:41:35.605Z,53.98
2022-09-13T14:44:47.607Z,54.32
2022-09-13T14:48:00.500Z,54.68
2022-09-13T14:51:18.334Z,54.40
2022-09-13T14:54:37.444Z,54.79
2022-09-13T14:57:49.699Z,55.01
2022-09-13T15:01:09.950Z,55.17
2022-09-13T15:04:20.679Z,55.39
2022-09-13T15:07:33.251Z,55.43
2022-09-13T15:10:47.747Z,55.34
2022-09-13T15:14:06.778Z,55.17
2022-09-13T15:17:15.495Z,55.34
2022-09-13T15:20:22.431Z,55.67
2022-09-13T15:23:34.090Z,55.62
2022-09-13T15:26:43.219Z,55.55
2022-09-13T15:29:52.794Z,55.34
2022-09-13T15:33:22.458Z,55.01
2022-09-13T15:36:32.504Z,54.97
2022-09-13T15:39:48.549Z,54.51
2022-09-13T15:43:00.830Z,54.61
2022-09-13T15:46:09.796Z,54.73
2022-09-13T15:49:20.292Z,54.39
2022-09-13T15:52:26.607Z,54.34
2022-09-13T15:55:34.747Z,54.30
2022-09-13T15:58:43.709Z,54.55
2022-09-13T16:01:52.629Z,54.79
2022-09-13T16:04:59.307Z,55.25
2022-09-13T16:08:08.264Z,55.39
2022-09-13T16:11:14.360Z,55.83
2022-09-13T16:14:24.317Z,56.08
2022-09-13T16:17:31.037Z,56.46
2022-09-13T16:20:38.444Z,56.47
2022-09-13T16:23:44.708Z,56.85
2022-09-13T16:26:51.575Z,56.82
2022-09-13T16:30:00.550Z,57.18
2022-09-13T16:33:09.455Z,57.29
2022-09-13T16:36:16.044Z,57.40
2022-09-13T16:39:23.225Z,57.46
2022-09-13T16:42:29.404Z,57.48
2022-09-13T16:45:42.413Z,57.59
2022-09-13T16:48:49.679Z,57.86
2022-09-13T16:51:59.662Z,57.94
2022-09-13T16:55:08.716Z,58.30
2022-09-13T16:58:15.680Z,58.43
2022-09-13T17:01:26.651Z,58.60
2022-09-13T17:04:33.668Z,58.83
2022-09-13T17:07:40.140Z,59.19
2022-09-13T17:10:47.890Z,59.36
2022-09-13T17:13:54.226Z,59.48
2022-09-13T17:17:04.892Z,59.70
2022-09-13T17:20:14.455Z,59.89
2022-09-13T17:23:21.589Z,60.05
2022-09-13T17:26:27.646Z,60.12
2022-09-13T17:29:34.703Z,60.52
2022-09-13T17:32:43.794Z,60.62
2022-09-13T17:35:50.964Z,60.74
2022-09-13T17:39:00.158Z,60.80
2022-09-13T17:42:13.899Z,61.05
2022-09-13T17:45:20.612Z,60.97
2022-09-13T17:48:30.579Z,61.24
2022-09-13T17:51:37.607Z,61.21
2022-09-13T17:54:44.725Z,61.13
2022-09-13T17:57:52.562Z,61.19
2022-09-13T18:01:07.401Z,61.34
2022-09-13T18:04:17.434Z,61.39
2022-09-13T18:07:24.423Z,61.44
2022-09-13T18:10:53.602Z,61.41
2022-09-13T18:13:58.022Z,61.59
2022-09-13T18:17:10.790Z,61.67
2022-09-13T18:20:20.882Z,61.72
2022-09-13T18:23:28.833Z,61.70
2022-09-13T18:26:36.262Z,62.04
2022-09-13T18:29:42.894Z,61.97
2022-09-13T18:32:50.214Z,62.11
2022-09-13T18:36:07.832Z,61.97
2022-09-13T18:39:19.434Z,62.15
2022-09-13T18:42:27.561Z,62.01
2022-09-13T18:45:37.452Z,62.34
2022-09-13T18:48:49.452Z,62.37
2022-09-13T18:51:59.415Z,62.26
2022-09-13T18:55:07.632Z,62.41
2022-09-13T18:58:14.764Z,62.71
2022-09-13T19:01:23.584Z,62.87
2022-09-13T19:04:32.205Z,63.04
2022-09-13T19:07:43.708Z,63.54
2022-09-13T19:10:50.964Z,63.98
2022-09-13T19:13:57.749Z,64.43
2022-09-13T19:17:07.145Z,64.77
2022-09-13T19:20:13.996Z,65.04
2022-09-13T19:23:37.654Z,65.44
2022-09-13T19:26:52.430Z,65.57
2022-09-13T19:29:59.612Z,65.87
2022-09-13T19:33:07.835Z,66.00
2022-09-13T19:36:17.066Z,66.17
2022-09-13T19:39:29.590Z,66.21
2022-09-13T19:42:38.037Z,66.38
2022-09-13T19:45:44.779Z,66.64
2022-09-13T19:48:54.044Z,66.47
2022-09-13T19:52:00.528Z,66.62
2022-09-13T19:55:13.814Z,67.08
2022-09-13T19:58:21.041Z,67.51
2022-09-13T20:01:30.046Z,67.51
2022-09-13T20:04:36.569Z,67.46
2022-09-13T20:07:47.230Z,67.58
2022-09-13T20:10:56.625Z,68.03
2022-09-13T20:14:05.013Z,67.95
2022-09-13T20:17:11.706Z,68.02
2022-09-13T20:20:19.777Z,67.70
2022-09-13T20:23:26.763Z,67.63
2022-09-13T20:26:37.589Z,67.65
2022-09-13T20:29:44.189Z,67.47
2022-09-13T20:32:53.467Z,67.52
2022-09-13T20:35:59.338Z,67.58
2022-09-13T20:39:08.138Z,67.59
2022-09-13T20:42:17.393Z,67.64
2022-09-13T20:45:24.491Z,67.79
2022-09-13T20:48:30.636Z,67.76
2022-09-13T20:51:38.903Z,67.89
2022-09-13T20:54:45.631Z,67.76
2022-09-13T20:57:55.600Z,67.54
2022-09-13T21:01:06.793Z,67.49
2022-09-13T21:04:15.300Z,67.67
2022-09-13T21:07:39.029Z,67.59
2022-09-13T21:10:46.359Z,67.93
2022-09-13T21:13:58.569Z,67.81
2022-09-13T21:17:08.651Z,67.96
2022-09-13T21:20:14.966Z,67.86
2022-09-13T21:23:22.365Z,67.76
2022-09-13T21:26:31.265Z,67.85
2022-09-13T21:29:41.306Z,67.75
2022-09-13T21:32:47.540Z,67.70
2022-09-13T21:35:55.023Z,67.42
2022-09-13T21:39:03.693Z,67.55
2022-09-13T21:42:11.695Z,67.52
2022-09-13T21:45:20.897Z,67.49
2022-09-13T21:48:28.440Z,67.60
2022-09-13T21:51:36.546Z,67.63
2022-09-13T21:54:43.923Z,67.60
2022-09-13T21:57:50.539Z,67.75
2022-09-13T22:01:10.299Z,67.42
2022-09-13T22:04:18.626Z,67.49
2022-09-13T22:07:26.233Z,67.52
2022-09-13T22:10:32.572Z,67.49
2022-09-13T22:13:45.699Z,67.58
2022-09-13T22:16:55.867Z,67.47
2022-09-13T22:20:03.808Z,67.55
2022-09-13T22:23:10.579Z,67.53
2022-09-13T22:26:20.181Z,67.44
2022-09-13T22:29:26.541Z,67.57
2022-09-13T22:32:36.511Z,67.50
2022-09-13T22:35:42.630Z,67.35
2022-09-13T22:38:54.795Z,67.52
2022-09-13T22:42:03.524Z,67.36
2022-09-13T22:45:11.239Z,67.47
2022-09-13T22:48:20.241Z,67.42
2022-09-13T22:51:27.405Z,67.41
2022-09-13T22:54:33.692Z,67.27
2022-09-13T22:57:40.762Z,67.20
2022-09-13T23:00:48.082Z,66.95
2022-09-13T23:03:57.912Z,67.04
2022-09-13T23:07:04.332Z,66.86
2022-09-13T23:10:12.365Z,66.70
2022-09-13T23:13:18.666Z,66.62
2022-09-13T23:16:28.107Z,66.44
2022-09-13T23:19:36.954Z,66.31
2022-09-13T23:22:44.303Z,66.32
2022-09-13T23:25:50.410Z,66.22
2022-09-13T23:28:59.354Z,65.97
2022-09-13T23:32:08.536Z,66.25
2022-09-13T23:35:19.064Z,66.12
2022-09-13T23:38:25.219Z,66.16
2022-09-13T23:41:33.444Z,66.10
2022-09-13T23:44:39.808Z,66.16
2022-09-13T23:47:47.109Z,66.18
2022-09-13T23:51:04.351Z,66.20
2022-09-13T23:54:11.833Z,65.99
2022-09-13T23:57:18.307Z,66.02
